Time;durP1;ratioP1;P1;durP2;ratioP2;P2;SDS_P1;SDS_P2;PMS_P1;PMS_P2;Temp;Humidity;BMP_temperature;BMP_pressure;BME280_temperature;BME280_humidity;BME280_pressure;Samples;Min_cycle;Max_cycle;Signal;HPM_P1;HPM_P2
2022/10/29 00:00:51;;;;;;;1.83;1.50;;;16.10;99.90;;;;;;5010565;28;20201;-63
2022/10/29 00:03:19;;;;;;;3.27;1.70;;;16.20;99.90;;;;;;5009879;28;20201;-63
2022/10/29 00:05:56;;;;;;;2.37;1.80;;;16.20;99.90;;;;;;5010700;28;20297;-64
2022/10/29 00:08:23;;;;;;;2.70;1.97;;;16.20;99.90;;;;;;5008775;28;20309;-64
2022/10/29 00:10:50;;;;;;;2.40;1.90;;;16.20;99.90;;;;;;5010410;28;20213;-64
2022/10/29 00:13:17;;;;;;;1.50;1.40;;;16.30;99.90;;;;;;5011023;28;20235;-63
2022/10/29 00:15:44;;;;;;;2.80;1.93;;;16.20;99.90;;;;;;5013947;28;20308;-63
2022/10/29 00:18:11;;;;;;;2.40;1.80;;;16.10;99.90;;;;;;5013452;28;20691;-63
2022/10/29 00:20:38;;;;;;;1.57;1.40;;;16.10;99.90;;;;;;5014932;28;20205;-63
2022/10/29 00:23:06;;;;;;;1.67;1.50;;;16.00;99.90;;;;;;5013847;28;20212;-63
2022/10/29 00:25:33;;;;;;;1.77;1.50;;;16.00;99.90;;;;;;5009045;28;20211;-62
2022/10/29 00:27:59;;;;;;;1.70;1.60;;;16.00;99.90;;;;;;5014687;28;20279;-63
2022/10/29 00:30:26;;;;;;;1.80;1.42;;;16.00;99.90;;;;;;5014375;28;20235;-64
2022/10/29 00:32:53;;;;;;;1.93;1.70;;;16.00;99.90;;;;;;5013896;28;20206;-63
2022/10/29 00:35:20;;;;;;;1.70;1.60;;;16.00;99.90;;;;;;5014202;28;20656;-64
2022/10/29 00:37:47;;;;;;;1.47;1.33;;;16.00;99.90;;;;;;5014793;28;20209;-63
2022/10/29 00:40:15;;;;;;;1.93;1.70;;;15.90;99.90;;;;;;5014305;28;20707;-64
2022/10/29 00:42:42;;;;;;;1.60;1.50;;;16.00;99.90;;;;;;5014066;28;20215;-63
2022/10/29 00:45:18;;;;;;;1.63;1.53;;;16.00;99.90;;;;;;5014880;28;20205;-63
2022/10/29 00:47:49;;;;;;;1.57;1.47;;;16.00;99.90;;;;;;5017208;28;20216;-63
2022/10/29 00:50:16;;;;;;;2.60;1.77;;;16.00;99.90;;;;;;5014585;28;20695;-65
2022/10/29 00:52:47;;;;;;;1.60;1.50;;;15.90;99.90;;;;;;5015322;28;20211;-64
2022/10/29 00:55:15;;;;;;;1.60;1.50;;;15.90;99.90;;;;;;5014308;28;20194;-63
2022/10/29 00:57:47;;;;;;;2.57;1.60;;;15.90;99.90;;;;;;5014243;28;20216;-63
2022/10/29 01:00:15;;;;;;;2.47;1.47;;;15.80;99.90;;;;;;5014048;28;20722;-62
2022/10/29 01:02:43;;;;;;;3.00;1.90;;;15.80;99.90;;;;;;5013437;28;20205;-62
2022/10/29 01:05:12;;;;;;;1.97;1.77;;;15.80;99.90;;;;;;5013683;28;20201;-62
2022/10/29 01:07:39;;;;;;;1.63;1.53;;;15.80;99.90;;;;;;5013950;28;20216;-63
2022/10/29 01:10:07;;;;;;;1.87;1.70;;;15.70;99.90;;;;;;5013752;28;20240;-62
2022/10/29 01:12:49;;;;;;;2.47;1.53;;;15.70;99.90;;;;;;5013064;28;20206;-63
2022/10/29 01:15:23;;;;;;;1.85;1.65;;;15.70;99.90;;;;;;5014011;28;20215;-62
2022/10/29 01:18:05;;;;;;;1.73;1.40;;;15.70;99.90;;;;;;5014465;28;20200;-64
2022/10/29 01:21:07;;;;;;;1.60;1.50;;;15.70;99.90;;;;;;5013677;28;20292;-64
2022/10/29 01:24:39;;;;;;;1.63;1.53;;;15.70;99.90;;;;;;5010947;28;20209;-68
2022/10/29 01:27:26;;;;;;;1.60;1.50;;;15.70;99.90;;;;;;5016658;28;20202;-65
2022/10/29 01:30:05;;;;;;;2.00;1.57;;;15.80;99.90;;;;;;5027708;28;20347;-62
2022/10/29 01:32:40;;;;;;;1.60;1.40;;;15.80;99.90;;;;;;5024625;28;20300;-62
2022/10/29 01:35:15;;;;;;;1.63;1.53;;;15.80;99.90;;;;;;5017809;28;20816;-62
2022/10/29 01:37:53;;;;;;;1.83;1.60;;;15.80;99.90;;;;;;5013713;28;20212;-66
2022/10/29 01:40:25;;;;;;;1.80;1.37;;;15.80;99.90;;;;;;5005812;28;20225;-64
2022/10/29 01:42:57;;;;;;;2.13;1.60;;;15.80;99.90;;;;;;5013260;28;20205;-63
2022/10/29 01:45:31;;;;;;;1.63;1.53;;;15.80;99.90;;;;;;5006424;28;20675;-64
2022/10/29 01:48:05;;;;;;;1.60;1.30;;;15.80;99.90;;;;;;5013599;28;20212;-64
2022/10/29 01:50:33;;;;;;;2.10;1.70;;;15.80;99.90;;;;;;5013094;28;20197;-63
2022/10/29 01:53:03;;;;;;;1.60;1.50;;;15.80;99.90;;;;;;5012153;28;20201;-63
2022/10/29 01:55:34;;;;;;;1.67;1.58;;;15.80;99.90;;;;;;5013228;28;20219;-63
2022/10/29 01:58:01;;;;;;;1.40;1.30;;;15.70;99.90;;;;;;5008630;28;20205;-66
2022/10/29 02:00:33;;;;;;;2.20;1.60;;;15.80;99.90;;;;;;5012959;28;20207;-62
2022/10/29 02:03:15;;;;;;;1.63;1.53;;;15.80;99.90;;;;;;5009941;28;20213;-63
2022/10/29 02:05:53;;;;;;;1.43;1.33;;;15.80;99.90;;;;;;5012551;28;20668;-64
2022/10/29 02:08:27;;;;;;;2.00;1.63;;;15.80;99.90;;;;;;5010254;28;20228;-63
2022/10/29 02:10:59;;;;;;;1.53;1.43;;;15.80;99.90;;;;;;5012498;28;20201;-64
2022/10/29 02:13:33;;;;;;;1.50;1.40;;;15.80;99.90;;;;;;5009471;28;20264;-64
2022/10/29 02:16:04;;;;;;;2.23;1.70;;;15.80;99.90;;;;;;5012440;28;20200;-63
2022/10/29 02:18:40;;;;;;;1.53;1.43;;;15.70;99.90;;;;;;5012497;28;20225;-64
2022/10/29 02:21:07;;;;;;;1.97;1.60;;;15.70;99.90;;;;;;5012428;28;20219;-64
2022/10/29 02:23:34;;;;;;;1.80;1.60;;;15.70;99.90;;;;;;5014318;28;20200;-63
2022/10/29 02:26:01;;;;;;;2.50;1.80;;;15.60;99.90;;;;;;5014954;28;20216;-63
2022/10/29 02:28:27;;;;;;;1.90;1.60;;;15.60;99.90;;;;;;5012111;28;20715;-66
2022/10/29 02:30:54;;;;;;;2.00;1.80;;;15.70;99.90;;;;;;5011885;28;20213;-63
2022/10/29 02:33:21;;;;;;;1.93;1.37;;;15.60;99.90;;;;;;5011752;28;20205;-63
2022/10/29 02:35:49;;;;;;;1.50;1.40;;;15.70;99.90;;;;;;5012026;28;20239;-63
2022/10/29 02:38:16;;;;;;;1.50;1.40;;;15.70;99.90;;;;;;5011579;28;20212;-63
2022/10/29 02:40:43;;;;;;;2.13;1.40;;;15.70;99.90;;;;;;5012464;28;20212;-62
2022/10/29 02:43:10;;;;;;;2.10;1.80;;;15.70;99.90;;;;;;5012665;28;20205;-64
2022/10/29 02:45:36;;;;;;;1.57;1.47;;;15.70;99.90;;;;;;5012506;28;20208;-65
2022/10/29 02:48:04;;;;;;;1.80;1.70;;;15.70;99.90;;;;;;5012362;28;20209;-63
2022/10/29 02:50:30;;;;;;;1.40;1.30;;;15.70;99.90;;;;;;5008826;28;20205;-63
2022/10/29 02:52:59;;;;;;;2.30;1.70;;;15.70;99.90;;;;;;5010977;28;20671;-64
2022/10/29 02:55:26;;;;;;;1.70;1.50;;;15.60;99.90;;;;;;5012310;28;20320;-64
2022/10/29 02:57:52;;;;;;;1.47;1.37;;;15.60;99.90;;;;;;5012088;28;20204;-64
2022/10/29 03:00:20;;;;;;;2.23;1.60;;;15.60;99.90;;;;;;5003980;28;20217;-63
2022/10/29 03:02:46;;;;;;;1.60;1.50;;;15.60;99.90;;;;;;5012065;28;20659;-65
2022/10/29 03:05:13;;;;;;;1.63;1.50;;;15.50;99.90;;;;;;5013137;28;20288;-63
2022/10/29 03:07:40;;;;;;;1.60;1.50;;;15.50;99.90;;;;;;5012890;28;20201;-65
2022/10/29 03:10:09;;;;;;;1.93;1.77;;;15.40;99.90;;;;;;5012956;28;20225;-63
2022/10/29 03:12:36;;;;;;;1.93;1.57;;;15.40;99.90;;;;;;5012539;28;20231;-63
2022/10/29 03:15:03;;;;;;;1.60;1.50;;;15.40;99.90;;;;;;5012872;28;20251;-64
2022/10/29 03:17:29;;;;;;;1.70;1.47;;;15.40;99.90;;;;;;5013291;28;20212;-63
2022/10/29 03:19:56;;;;;;;1.50;1.40;;;15.50;99.90;;;;;;5014874;28;20311;-65
2022/10/29 03:22:23;;;;;;;1.50;1.40;;;15.50;99.90;;;;;;5014343;28;20205;-63
2022/10/29 03:24:50;;;;;;;1.40;1.30;;;15.50;99.90;;;;;;5013756;28;20201;-66
2022/10/29 03:27:18;;;;;;;1.83;1.60;;;15.50;99.90;;;;;;5013363;28;20743;-64
2022/10/29 03:29:45;;;;;;;2.57;1.70;;;15.60;99.90;;;;;;5015743;28;20340;-64
2022/10/29 03:32:11;;;;;;;2.13;1.90;;;15.60;99.90;;;;;;5018217;28;20201;-63
2022/10/29 03:34:38;;;;;;;1.50;1.40;;;15.60;99.90;;;;;;5023911;28;20224;-63
2022/10/29 03:37:05;;;;;;;1.73;1.60;;;15.60;99.90;;;;;;5024450;28;20201;-65
2022/10/29 03:39:32;;;;;;;1.60;1.50;;;15.60;99.90;;;;;;5025623;28;20217;-64
2022/10/29 03:41:59;;;;;;;1.70;1.60;;;15.60;99.90;;;;;;5018046;28;20288;-63
2022/10/29 03:44:27;;;;;;;1.70;1.60;;;15.60;99.90;;;;;;5013964;28;20197;-63
2022/10/29 03:46:54;;;;;;;1.57;1.47;;;15.60;99.90;;;;;;5013865;28;20554;-63
2022/10/29 03:49:21;;;;;;;1.93;1.63;;;15.50;99.90;;;;;;5018494;28;20225;-65
2022/10/29 03:51:47;;;;;;;1.30;1.20;;;15.50;99.90;;;;;;5016546;28;20205;-64
2022/10/29 03:54:14;;;;;;;1.60;1.50;;;15.50;99.90;;;;;;5016559;28;20225;-63
2022/10/29 03:56:41;;;;;;;1.70;1.60;;;15.40;99.90;;;;;;5024804;23;20227;-64
2022/10/29 03:59:08;;;;;;;2.30;1.57;;;15.40;99.90;;;;;;4996563;28;20202;-66
2022/10/29 04:01:36;;;;;;;2.53;1.30;;;15.40;99.90;;;;;;4996160;28;20209;-66
2022/10/29 04:04:03;;;;;;;1.40;1.30;;;15.30;99.90;;;;;;4996137;28;20212;-67
2022/10/29 04:06:30;;;;;;;1.47;1.37;;;15.30;99.90;;;;;;4999380;28;20231;-66
2022/10/29 04:08:57;;;;;;;1.67;1.57;;;15.20;99.90;;;;;;5015175;28;20221;-65
2022/10/29 04:11:23;;;;;;;2.67;1.30;;;15.20;99.90;;;;;;5016008;28;20288;-65
2022/10/29 04:13:52;;;;;;;1.60;1.37;;;15.20;99.90;;;;;;5015491;28;20209;-67
2022/10/29 04:16:19;;;;;;;1.60;1.50;;;15.20;99.90;;;;;;5016936;28;20255;-66
2022/10/29 04:18:48;;;;;;;1.70;1.60;;;15.20;99.90;;;;;;5016203;28;20603;-67
2022/10/29 04:21:15;;;;;;;2.00;1.60;;;15.20;99.90;;;;;;5016524;28;20208;-66
2022/10/29 04:23:42;;;;;;;1.50;1.40;;;15.10;99.90;;;;;;5016976;28;20205;-67
2022/10/29 04:26:09;;;;;;;2.87;1.50;;;15.20;99.90;;;;;;5016877;28;20666;-65
2022/10/29 04:28:36;;;;;;;4.60;1.60;;;15.20;99.90;;;;;;5021180;28;20206;-65
2022/10/29 04:31:04;;;;;;;1.57;1.47;;;15.20;99.90;;;;;;5019709;28;20236;-64
2022/10/29 04:33:31;;;;;;;2.37;1.80;;;15.10;99.90;;;;;;5013200;28;20219;-65
2022/10/29 04:35:59;;;;;;;1.97;1.40;;;15.10;99.90;;;;;;5019241;28;20232;-67
2022/10/29 04:38:26;;;;;;;1.50;1.40;;;15.10;99.90;;;;;;5017587;28;20646;-66
2022/10/29 04:40:53;;;;;;;1.50;1.40;;;15.10;99.90;;;;;;5015825;28;20636;-66
2022/10/29 04:43:20;;;;;;;1.50;1.40;;;15.00;99.90;;;;;;5015047;28;20681;-65
2022/10/29 04:45:51;;;;;;;1.50;1.40;;;15.00;99.90;;;;;;5015570;28;20236;-67
2022/10/29 04:48:18;;;;;;;1.70;1.60;;;15.00;99.90;;;;;;5014862;28;20221;-65
2022/10/29 04:50:45;;;;;;;1.77;1.67;;;15.00;99.90;;;;;;5018271;28;20209;-67
2022/10/29 04:53:14;;;;;;;1.40;1.30;;;15.00;99.90;;;;;;5015668;28;20268;-67
2022/10/29 04:55:41;;;;;;;1.83;1.40;;;15.10;99.90;;;;;;5012062;28;20218;-66
2022/10/29 04:58:13;;;;;;;1.47;1.37;;;15.10;99.90;;;;;;5016836;28;20235;-64
2022/10/29 05:00:40;;;;;;;2.00;1.50;;;15.10;99.90;;;;;;5015514;28;20239;-65
2022/10/29 05:03:07;;;;;;;1.27;1.13;;;15.10;99.90;;;;;;5013404;28;20651;-66
2022/10/29 05:05:34;;;;;;;1.50;1.40;;;15.20;99.90;;;;;;5014359;28;20199;-66
2022/10/29 05:08:02;;;;;;;1.40;1.30;;;15.20;99.90;;;;;;5014276;28;20229;-67
2022/10/29 05:10:32;;;;;;;1.50;1.40;;;15.10;99.90;;;;;;5014101;28;20209;-69
2022/10/29 05:13:01;;;;;;;2.87;1.23;;;15.20;99.90;;;;;;5013332;28;20197;-67
2022/10/29 05:15:29;;;;;;;1.53;1.43;;;15.20;99.90;;;;;;5014220;28;20218;-64
2022/10/29 05:17:57;;;;;;;1.50;1.40;;;15.20;99.90;;;;;;5014246;28;20225;-67
2022/10/29 05:20:24;;;;;;;1.60;1.50;;;15.10;99.90;;;;;;5014355;28;20201;-67
2022/10/29 05:22:58;;;;;;;2.63;1.67;;;15.10;99.90;;;;;;5012757;28;20205;-66
2022/10/29 05:25:25;;;;;;;1.60;1.50;;;14.90;99.90;;;;;;5016068;28;20201;-65
2022/10/29 05:28:04;;;;;;;1.63;1.53;;;15.00;99.90;;;;;;5017533;28;20217;-67
2022/10/29 05:30:31;;;;;;;1.57;1.47;;;15.00;99.90;;;;;;5009834;28;20209;-65
2022/10/29 05:32:58;;;;;;;1.40;1.30;;;15.00;99.90;;;;;;5013510;28;20205;-65
2022/10/29 05:35:25;;;;;;;1.83;1.60;;;15.00;99.90;;;;;;5015446;28;20221;-66
2022/10/29 05:37:52;;;;;;;1.20;1.10;;;15.00;99.90;;;;;;5014299;28;20228;-67
2022/10/29 05:40:19;;;;;;;2.13;1.63;;;15.00;99.90;;;;;;5014391;28;20296;-66
2022/10/29 05:42:46;;;;;;;4.77;1.50;;;14.90;99.90;;;;;;5013166;28;20205;-65
2022/10/29 05:45:14;;;;;;;1.70;1.60;;;14.90;99.90;;;;;;5014432;28;20204;-66
2022/10/29 05:47:41;;;;;;;1.80;1.60;;;14.90;99.90;;;;;;5013356;28;20235;-67
2022/10/29 05:50:09;;;;;;;1.40;1.30;;;14.90;99.90;;;;;;5013169;28;20197;-66
2022/10/29 05:52:36;;;;;;;2.23;1.80;;;14.90;99.90;;;;;;5013518;28;20212;-65
2022/10/29 05:55:03;;;;;;;2.30;1.50;;;14.90;99.90;;;;;;5014821;28;20737;-67
2022/10/29 05:57:30;;;;;;;1.50;1.40;;;14.80;99.90;;;;;;5014477;28;20946;-67
2022/10/29 05:59:57;;;;;;;2.17;1.50;;;14.80;99.90;;;;;;5015581;28;20205;-67
2022/10/29 06:02:25;;;;;;;1.57;1.47;;;14.80;99.90;;;;;;5013292;28;20211;-65
2022/10/29 06:04:52;;;;;;;1.50;1.40;;;14.80;99.90;;;;;;5013770;28;20666;-65
2022/10/29 06:07:19;;;;;;;1.70;1.43;;;14.70;99.90;;;;;;5013767;28;20225;-67
2022/10/29 06:09:45;;;;;;;1.70;1.57;;;14.60;99.90;;;;;;5014278;28;20231;-68
2022/10/29 06:12:12;;;;;;;1.85;1.58;;;14.70;99.90;;;;;;5012492;28;20205;-67
2022/10/29 06:14:39;;;;;;;1.57;1.47;;;14.70;99.90;;;;;;5015004;28;20601;-65
2022/10/29 06:17:06;;;;;;;1.50;1.40;;;14.70;99.90;;;;;;5015508;28;20225;-64
2022/10/29 06:19:34;;;;;;;1.50;1.40;;;14.70;99.90;;;;;;5016071;28;20198;-65
2022/10/29 06:22:01;;;;;;;1.70;1.60;;;14.70;99.90;;;;;;5015106;28;20215;-67
2022/10/29 06:24:28;;;;;;;2.10;1.40;;;14.70;99.90;;;;;;5016452;28;20603;-66
2022/10/29 06:26:55;;;;;;;1.13;1.10;;;14.70;99.90;;;;;;5014271;28;20247;-66
2022/10/29 06:29:22;;;;;;;1.57;1.47;;;14.70;99.90;;;;;;5016174;28;20205;-67
2022/10/29 06:31:49;;;;;;;1.53;1.43;;;14.70;99.90;;;;;;5020110;28;20209;-66
2022/10/29 06:34:15;;;;;;;1.63;1.53;;;14.80;99.90;;;;;;5014986;28;20201;-66
2022/10/29 06:36:44;;;;;;;1.60;1.50;;;14.80;99.90;;;;;;5016053;28;21022;-67
2022/10/29 06:39:10;;;;;;;1.50;1.40;;;14.90;99.90;;;;;;5015620;28;20209;-65
2022/10/29 06:41:37;;;;;;;1.40;1.30;;;14.90;99.90;;;;;;5015916;28;20205;-66
2022/10/29 06:44:04;;;;;;;1.70;1.60;;;14.90;99.90;;;;;;5017470;28;20287;-66
2022/10/29 06:46:32;;;;;;;1.30;1.20;;;14.90;99.90;;;;;;5015383;28;20304;-65
2022/10/29 06:48:59;;;;;;;1.67;1.53;;;15.00;99.90;;;;;;5013041;28;20213;-66
2022/10/29 06:51:26;;;;;;;2.37;1.70;;;14.90;99.90;;;;;;5018708;28;20236;-67
2022/10/29 06:53:54;;;;;;;2.43;1.67;;;14.90;99.90;;;;;;5017824;28;20289;-65
2022/10/29 06:56:21;;;;;;;1.50;1.40;;;14.90;99.90;;;;;;5011189;28;20231;-66
2022/10/29 06:58:48;;;;;;;2.03;1.40;;;14.90;99.90;;;;;;5019573;28;20296;-67
2022/10/29 07:01:15;;;;;;;2.83;1.93;;;14.90;99.90;;;;;;5019247;28;20304;-68
2022/10/29 07:03:42;;;;;;;1.73;1.50;;;14.90;99.90;;;;;;5018916;28;20202;-65
2022/10/29 07:06:09;;;;;;;1.50;1.40;;;14.90;99.90;;;;;;5023867;28;20625;-66
2022/10/29 07:08:36;;;;;;;1.50;1.40;;;14.90;99.90;;;;;;5020036;28;20215;-65
2022/10/29 07:11:04;;;;;;;1.60;1.50;;;14.90;99.90;;;;;;5013774;28;20217;-66
2022/10/29 07:13:31;;;;;;;2.23;1.80;;;14.90;99.90;;;;;;5008611;28;20212;-67
2022/10/29 07:15:58;;;;;;;1.75;1.63;;;14.90;99.90;;;;;;5002174;28;20317;-65
2022/10/29 07:18:24;;;;;;;1.50;1.40;;;15.00;99.90;;;;;;5003297;28;20241;-66
2022/10/29 07:20:51;;;;;;;1.70;1.60;;;15.00;99.90;;;;;;4999763;28;20206;-66
2022/10/29 07:23:18;;;;;;;2.30;1.67;;;15.10;99.90;;;;;;5001431;28;20201;-67
2022/10/29 07:25:45;;;;;;;2.30;1.30;;;15.20;99.90;;;;;;5009656;28;20308;-67
2022/10/29 07:28:15;;;;;;;1.63;1.50;;;15.20;99.90;;;;;;5003336;28;20222;-66
2022/10/29 07:30:42;;;;;;;2.07;1.87;;;15.40;99.90;;;;;;5000184;28;20202;-67
2022/10/29 07:33:10;;;;;;;1.70;1.60;;;15.40;99.90;;;;;;5009176;28;20228;-67
2022/10/29 07:35:37;;;;;;;1.83;1.73;;;15.40;99.90;;;;;;5006674;28;20231;-66
2022/10/29 07:38:05;;;;;;;2.13;1.73;;;15.60;99.90;;;;;;5005171;28;20225;-66
2022/10/29 07:40:32;;;;;;;1.70;1.60;;;15.60;99.90;;;;;;5006294;28;20209;-65
2022/10/29 07:42:59;;;;;;;1.57;1.47;;;15.70;99.90;;;;;;5009175;28;20201;-66
2022/10/29 07:45:28;;;;;;;1.70;1.60;;;15.80;99.90;;;;;;5009170;28;20378;-67
2022/10/29 07:47:59;;;;;;;1.70;1.60;;;15.90;99.90;;;;;;5013508;28;20234;-65
2022/10/29 07:50:26;;;;;;;1.20;1.20;;;16.00;99.90;;;;;;5001549;28;20210;-67
2022/10/29 07:52:53;;;;;;;2.13;1.53;;;16.10;99.90;;;;;;5006293;28;20203;-67
2022/10/29 07:55:20;;;;;;;1.50;1.40;;;16.20;99.90;;;;;;5001505;28;20321;-67
2022/10/29 07:57:47;;;;;;;1.67;1.52;;;16.30;99.90;;;;;;5000500;28;20602;-65
2022/10/29 08:00:15;;;;;;;1.67;1.57;;;16.40;99.90;;;;;;5007154;28;20202;-66
2022/10/29 08:02:43;;;;;;;1.70;1.60;;;16.60;99.90;;;;;;5005751;28;20284;-67
2022/10/29 08:05:10;;;;;;;2.17;1.63;;;16.70;99.90;;;;;;5006731;28;20682;-67
2022/10/29 08:07:37;;;;;;;1.70;1.60;;;16.80;99.90;;;;;;5007755;28;20232;-66
2022/10/29 08:10:04;;;;;;;1.73;1.63;;;17.00;99.90;;;;;;5000725;28;20580;-67
2022/10/29 08:12:31;;;;;;;2.50;1.50;;;17.20;99.90;;;;;;5003899;28;20667;-66
2022/10/29 08:14:58;;;;;;;1.70;1.60;;;17.40;99.90;;;;;;5003524;28;20208;-65
2022/10/29 08:17:24;;;;;;;1.93;1.57;;;17.60;99.90;;;;;;5009218;28;20224;-66
2022/10/29 08:19:53;;;;;;;1.70;1.60;;;17.80;99.90;;;;;;5005726;28;20209;-65
2022/10/29 08:22:19;;;;;;;1.93;1.57;;;17.90;99.90;;;;;;5009897;28;20220;-66
2022/10/29 08:24:46;;;;;;;1.37;1.33;;;18.10;99.90;;;;;;5007672;28;20206;-65
2022/10/29 08:27:13;;;;;;;1.80;1.70;;;18.20;99.90;;;;;;5009751;28;20219;-65
2022/10/29 08:29:40;;;;;;;1.60;1.50;;;18.30;99.90;;;;;;5013711;28;20214;-64
2022/10/29 08:32:07;;;;;;;2.70;1.93;;;18.40;99.90;;;;;;5014909;28;20201;-65
2022/10/29 08:34:34;;;;;;;2.00;1.80;;;18.60;99.90;;;;;;5013275;28;20205;-66
2022/10/29 08:37:02;;;;;;;2.87;1.40;;;18.70;99.90;;;;;;5013807;28;20251;-66
2022/10/29 08:39:29;;;;;;;1.87;1.70;;;18.80;99.90;;;;;;5011345;28;20212;-65
2022/10/29 08:42:09;;;;;;;1.67;1.27;;;18.90;99.90;;;;;;5013332;28;20208;-65
2022/10/29 08:44:58;;;;;;;1.40;1.30;;;19.00;99.90;;;;;;5010404;28;20205;-65
2022/10/29 08:47:25;;;;;;;1.50;1.40;;;19.10;99.90;;;;;;5010913;28;20264;-65
2022/10/29 08:50:02;;;;;;;1.37;1.27;;;19.20;99.90;;;;;;5000506;28;20212;-66
2022/10/29 08:52:35;;;;;;;1.67;1.57;;;19.30;99.90;;;;;;5002398;28;20203;-65
2022/10/29 08:55:07;;;;;;;2.23;2.07;;;19.30;99.90;;;;;;5004757;28;20673;-69
2022/10/29 08:57:37;;;;;;;1.60;1.50;;;19.40;99.90;;;;;;5003006;28;20316;-65
2022/10/29 09:00:07;;;;;;;1.70;1.60;;;19.50;99.90;;;;;;5003104;28;20689;-65
2022/10/29 09:02:34;;;;;;;2.10;1.90;;;19.60;99.90;;;;;;5000498;28;20205;-65
2022/10/29 09:05:01;;;;;;;1.83;1.73;;;19.60;99.90;;;;;;5005179;28;20206;-66
2022/10/29 09:08:00;;;;;;;2.42;1.67;;;19.60;99.90;;;;;;5002632;28;20221;-66
2022/10/29 09:10:33;;;;;;;2.30;2.10;;;19.70;99.90;;;;;;5003938;28;20682;-64
2022/10/29 09:13:23;;;;;;;2.30;1.67;;;19.70;99.90;;;;;;5000354;28;20252;-65
2022/10/29 09:16:01;;;;;;;2.10;1.90;;;19.70;99.90;;;;;;5018420;28;20327;-66
2022/10/29 09:18:47;;;;;;;3.80;1.90;;;19.70;99.90;;;;;;5012351;28;20271;-66
2022/10/29 09:21:26;;;;;;;1.80;1.70;;;19.80;99.90;;;;;;5009496;28;20198;-65
2022/10/29 09:24:09;;;;;;;2.50;1.80;;;19.80;99.90;;;;;;5007552;28;20692;-66
2022/10/29 09:26:47;;;;;;;1.87;1.77;;;19.90;99.90;;;;;;5001560;28;20228;-65
2022/10/29 09:29:35;;;;;;;1.80;1.60;;;19.90;99.90;;;;;;5003244;28;20221;-65
2022/10/29 09:32:05;;;;;;;1.95;1.85;;;19.90;99.90;;;;;;5000888;28;20220;-65
2022/10/29 09:34:38;;;;;;;1.58;1.48;;;20.00;99.90;;;;;;5000180;28;20702;-65
2022/10/29 09:37:14;;;;;;;2.00;1.80;;;20.00;99.90;;;;;;5013028;28;20239;-65
2022/10/29 09:39:45;;;;;;;1.63;1.53;;;20.10;99.90;;;;;;5013541;28;20209;-66
2022/10/29 09:42:15;;;;;;;2.70;1.90;;;20.20;99.90;;;;;;5012290;28;20300;-65
2022/10/29 09:44:49;;;;;;;1.70;1.60;;;20.20;99.90;;;;;;5014561;28;20216;-65
2022/10/29 09:47:24;;;;;;;2.00;1.90;;;20.20;99.90;;;;;;5005397;28;20606;-65
2022/10/29 09:50:02;;;;;;;1.60;1.50;;;20.30;99.90;;;;;;5016463;28;20272;-66
2022/10/29 09:52:32;;;;;;;2.50;1.93;;;20.40;99.90;;;;;;5012898;28;20194;-65
2022/10/29 09:55:02;;;;;;;1.92;1.83;;;20.40;99.90;;;;;;5016170;28;20232;-66
2022/10/29 09:57:31;;;;;;;2.70;1.97;;;20.50;99.90;;;;;;5009403;28;20225;-66
2022/10/29 10:00:00;;;;;;;2.00;1.87;;;20.70;99.90;;;;;;5004388;28;20687;-65
2022/10/29 10:02:32;;;;;;;2.47;2.27;;;20.70;99.90;;;;;;5006456;28;20205;-66
2022/10/29 10:05:04;;;;;;;2.57;2.37;;;20.80;99.90;;;;;;5002740;28;20204;-65
2022/10/29 10:07:31;;;;;;;2.37;2.20;;;21.00;99.90;;;;;;5003042;28;20730;-67
2022/10/29 10:10:01;;;;;;;2.30;2.10;;;21.20;99.90;;;;;;5013276;28;20206;-65
2022/10/29 10:12:43;;;;;;;2.50;2.30;;;21.30;99.90;;;;;;5010397;28;20840;-65
2022/10/29 10:15:20;;;;;;;2.33;2.13;;;21.30;99.90;;;;;;5014173;28;20288;-66
2022/10/29 10:17:58;;;;;;;2.10;2.00;;;21.30;99.90;;;;;;5017971;28;20279;-65
2022/10/29 10:20:34;;;;;;;2.40;2.20;;;21.40;99.90;;;;;;5010116;28;20209;-67
2022/10/29 10:23:02;;;;;;;2.23;2.03;;;21.50;99.90;;;;;;5008880;28;20268;-66
2022/10/29 10:25:37;;;;;;;1.70;1.60;;;21.50;99.90;;;;;;5017402;28;20288;-67
2022/10/29 10:28:19;;;;;;;1.98;1.85;;;21.50;99.90;;;;;;5017335;28;20221;-66
2022/10/29 10:30:46;;;;;;;2.30;2.10;;;21.50;99.90;;;;;;5015809;28;20543;-67
2022/10/29 10:33:24;;;;;;;1.90;1.70;;;21.50;99.90;;;;;;5006343;28;20668;-67
2022/10/29 10:35:52;;;;;;;1.90;1.80;;;21.60;99.90;;;;;;5015751;28;20336;-66
2022/10/29 10:38:20;;;;;;;2.10;1.90;;;21.70;99.90;;;;;;5008489;28;20227;-66
2022/10/29 10:40:56;;;;;;;2.00;1.70;;;21.80;99.90;;;;;;5017482;28;20668;-64
2022/10/29 10:43:25;;;;;;;1.80;1.70;;;21.80;99.90;;;;;;5017231;28;20201;-65
2022/10/29 10:45:58;;;;;;;1.92;1.83;;;21.90;99.90;;;;;;5016935;28;20645;-66
2022/10/29 10:48:27;;;;;;;2.58;2.00;;;21.90;99.90;;;;;;5016666;28;20221;-65
2022/10/29 10:51:15;;;;;;;2.08;1.90;;;21.90;99.90;;;;;;5017930;28;20245;-66
2022/10/29 10:53:42;;;;;;;1.60;1.50;;;21.90;99.90;;;;;;5011938;28;20216;-64
2022/10/29 10:56:18;;;;;;;1.95;1.75;;;21.80;99.90;;;;;;5017556;28;20231;-65
2022/10/29 10:58:50;;;;;;;1.83;1.67;;;21.80;99.90;;;;;;5012230;28;20259;-64
2022/10/29 11:01:23;;;;;;;2.50;1.80;;;21.80;99.90;;;;;;5015793;28;20193;-65
2022/10/29 11:03:58;;;;;;;1.77;1.67;;;21.70;99.90;;;;;;5007782;28;20209;-66
2022/10/29 11:06:29;;;;;;;2.30;1.90;;;21.80;99.90;;;;;;5012261;28;20196;-66
2022/10/29 11:09:00;;;;;;;1.93;1.73;;;21.80;99.90;;;;;;5017284;28;20205;-64
2022/10/29 11:11:32;;;;;;;1.50;1.40;;;21.80;99.90;;;;;;5013874;28;20207;-66
2022/10/29 11:14:05;;;;;;;1.60;1.50;;;21.90;99.90;;;;;;5014417;28;20207;-66
2022/10/29 11:16:39;;;;;;;2.38;1.90;;;22.00;99.90;;;;;;5007845;28;20231;-66
2022/10/29 11:19:16;;;;;;;2.10;1.90;;;22.10;99.90;;;;;;5014839;28;20877;-65
2022/10/29 11:21:49;;;;;;;1.80;1.42;;;22.20;99.90;;;;;;5017079;28;20205;-64
2022/10/29 11:24:20;;;;;;;1.88;1.77;;;22.30;99.90;;;;;;5013595;28;20303;-65
2022/10/29 11:26:55;;;;;;;2.25;1.70;;;22.30;99.90;;;;;;5015128;28;20224;-67
2022/10/29 11:29:31;;;;;;;1.85;1.75;;;22.30;99.90;;;;;;5016754;28;20204;-68
2022/10/29 11:32:06;;;;;;;1.80;1.70;;;22.40;99.90;;;;;;5017343;28;20201;-64
2022/10/29 11:34:44;;;;;;;1.98;1.73;;;22.50;99.90;;;;;;5019985;28;20211;-64
2022/10/29 11:37:21;;;;;;;1.88;1.67;;;22.60;99.90;;;;;;5014581;28;20225;-65
2022/10/29 11:39:52;;;;;;;1.90;1.80;;;22.60;99.90;;;;;;5014696;28;21288;-65
2022/10/29 11:42:20;;;;;;;1.77;1.67;;;22.80;99.90;;;;;;5012623;28;21192;-67
2022/10/29 11:44:47;;;;;;;2.30;2.00;;;22.90;99.90;;;;;;5014009;28;20356;-66
2022/10/29 11:47:29;;;;;;;1.90;1.80;;;22.90;99.90;;;;;;5015009;28;20217;-66
2022/10/29 11:50:11;;;;;;;3.25;2.17;;;23.00;99.90;;;;;;5018481;28;20204;-65
2022/10/29 11:52:46;;;;;;;2.00;1.90;;;22.90;99.90;;;;;;5012147;28;20288;-66
2022/10/29 11:55:30;;;;;;;2.20;1.85;;;22.90;99.90;;;;;;5011503;28;20207;-67
2022/10/29 11:58:03;;;;;;;2.80;2.20;;;22.80;99.90;;;;;;5015914;28;20602;-64
2022/10/29 12:00:38;;;;;;;3.00;2.00;;;22.80;99.90;;;;;;5014240;28;20584;-66
2022/10/29 12:03:25;;;;;;;1.92;1.83;;;22.80;99.90;;;;;;5018650;28;20197;-65
2022/10/29 12:06:01;;;;;;;1.95;1.80;;;22.70;99.90;;;;;;5017532;28;20288;-64
2022/10/29 12:08:47;;;;;;;1.98;1.88;;;22.70;99.90;;;;;;5013656;28;20217;-64
2022/10/29 12:11:22;;;;;;;2.17;2.03;;;22.70;99.90;;;;;;5019694;28;20726;-64
2022/10/29 12:13:58;;;;;;;2.10;1.88;;;22.70;99.90;;;;;;5020894;28;20261;-68
2022/10/29 12:16:35;;;;;;;2.17;1.80;;;22.60;99.90;;;;;;5012033;28;20690;-65
2022/10/29 12:19:12;;;;;;;1.88;1.77;;;22.70;99.90;;;;;;5020025;28;20200;-67
2022/10/29 12:21:48;;;;;;;1.80;1.70;;;22.70;99.90;;;;;;5017247;28;20205;-65
2022/10/29 12:24:26;;;;;;;1.75;1.65;;;22.70;99.90;;;;;;5017300;28;20289;-65
2022/10/29 12:27:01;;;;;;;1.80;1.70;;;22.70;99.90;;;;;;5016104;28;20217;-65
2022/10/29 12:29:38;;;;;;;1.75;1.65;;;22.70;99.90;;;;;;5013868;28;20197;-65
2022/10/29 12:32:13;;;;;;;2.17;1.70;;;22.70;99.90;;;;;;5015671;28;21005;-66
2022/10/29 12:34:47;;;;;;;2.17;1.80;;;22.70;99.90;;;;;;5015866;28;20197;-66
2022/10/29 12:37:23;;;;;;;2.58;1.77;;;22.60;99.90;;;;;;5015265;28;20236;-64
2022/10/29 12:39:56;;;;;;;1.75;1.63;;;22.60;99.90;;;;;;5016428;28;20305;-66
2022/10/29 12:42:25;;;;;;;2.13;1.70;;;22.60;99.90;;;;;;5007615;28;20224;-65
2022/10/29 12:45:05;;;;;;;2.10;1.90;;;22.50;99.90;;;;;;5014753;28;20872;-66
2022/10/29 12:47:38;;;;;;;2.05;1.90;;;22.50;99.90;;;;;;5009348;28;20693;-65
2022/10/29 12:50:19;;;;;;;1.80;1.70;;;22.60;99.90;;;;;;5017057;28;20201;-64
2022/10/29 12:52:50;;;;;;;2.53;1.70;;;22.60;99.90;;;;;;5011819;28;20201;-65
2022/10/29 12:55:18;;;;;;;1.83;1.70;;;22.60;99.90;;;;;;5014897;28;20305;-64
2022/10/29 12:57:45;;;;;;;1.60;1.50;;;22.70;99.90;;;;;;5008790;28;20253;-64
2022/10/29 13:00:48;;;;;;;2.90;2.10;;;22.60;99.90;;;;;;5016912;28;20277;-65
2022/10/29 13:03:54;;;;;;;1.80;1.70;;;22.60;99.90;;;;;;5013794;28;20284;-67
2022/10/29 13:06:46;;;;;;;2.35;1.90;;;22.60;99.90;;;;;;5010336;28;20611;-64